Green Bay, WI (54304)

6:52 AM CDT on April 23, 2017 (GMT -0500)
Fox 11 | | Change Station

Elev 617 ft 44.50 °N, 88.05 °W | Updated 4 seconds ago

Clear
Clear
51.3 °F
Feels Like 51.3 °F
N
2.7
Wind Variable Wind from NNE
Gusts 2.7 mph

Today
High -- | Low -- °F
--% Chance of Precip.
Yesterday
High -- | Low -- °F
Precip. -- in
Pressure 30.07 in
Visibility 10.0 miles
Clouds Clear
Dew Point 42 °F
Humidity 71%
Rainfall in
Snow Depth Not available.
5:54 AM 7:47 PM
Waning Crescent, 12% visible
METAR KGRB 231053Z 22005KT 10SM CLR 07/02 A3006 RMK AO2 SLP182 T00720017
Pressure 30.07 in
Visibility 10.0 miles
Clouds Clear
Dew Point 42 °F
Humidity 71%
Rainfall in
Snow Depth Not available.
5:54 AM 7:47 PM
Waning Crescent, 12% visible
METAR KGRB 231053Z 22005KT 10SM CLR 07/02 A3006 RMK AO2 SLP182 T00720017

Get Severe Weather Alerts

Thanks for signing up!

Be on the lookout for a verification email in your inbox.

You'll start receiving the daily forecast at 8 AM.

×

10-Day Weather Forecast

Almanac

Astronomy

Apr. 23, 2017 Rise Set
Actual Time
Civil Twilight
Nautical Twilight
Astronomical Twilight
Moon
Length of Visible Light
Length of Day
Tomorrow will be .
, % of the Moon is Illuminated

Today's Extremes

State Highs State Lows

Community

WunderPhotos

WunderBlog® & News

Nearby

Air Quality

  Air Quality AQ Index Pollutant
Not available.

Snow Depth

Station Depth Elevation

Earthquake Activity

City Distance Mag. Time & Date
Minimum magnitude displayed is 2.5.

Coastal Water Temperatures

Place Temperature

Stations

Nearby Weather Stations

Station Location Temp. Windchill Dew Point Humidity Wind Precip. Elev Updated Type
                   

Watches & Warnings

There are currently no watches in effect.